To NAV CANADA Home Page Login to a new session Search on AWWS site Feedback and Comments Disclaimer Vers la page française équivalente Tips FAQ What's new on the site To the Forecasts and Observations / NOTAM section To "File a Flight Plan" website Publications and other links Update of the User's profile FIC Telephone Numbers My Weather Data Folder Route Weather Data Regional Weather Data Local Weather Data To the Forecasts and Observations / NOTAM section
Request Generated 10/18/2017 at 03:44:46 UTC . Weather information available at that time is displayed.

METAR/TAF

WINDSOR/ON    

METAR CYQG 180300Z 23008KT 15SM SCT250 13/06 A3019 RMK CI3 SLP227=
METAR CYQG 180200Z 23008KT 15SM SCT250 14/06 A3018 RMK CI3 SLP223=
METAR CYQG 180100Z 22008KT 15SM FEW250 14/06 A3016 RMK CI1 SLP218=

TAF CYQG 172343Z 1800/1824 22008KT P6SM SKC
BECMG 1815/1817 22015G25KT
BECMG 1821/1823 21012KT
RMK NXT FCST BY 180600Z=
Your time UTC time
Weather data provided by Environment Canada and NAV CANADA